createdAt,value
2018-08-12T00:00:51.773Z,59.93
2018-08-12T00:03:19.818Z,59.88
2018-08-12T00:05:47.860Z,59.94
2018-08-12T00:08:15.888Z,60.62
2018-08-12T00:10:43.926Z,60.80
2018-08-12T00:13:11.967Z,60.42
2018-08-12T00:15:40.170Z,60.38
2018-08-12T00:18:08.188Z,61.48
2018-08-12T00:20:36.213Z,61.17
2018-08-12T00:23:04.604Z,61.34
2018-08-12T00:25:32.660Z,61.64
2018-08-12T00:28:00.709Z,61.05
2018-08-12T00:30:28.743Z,61.17
2018-08-12T00:32:56.790Z,61.54
2018-08-12T00:35:24.807Z,61.30
2018-08-12T00:37:52.835Z,61.69
2018-08-12T00:40:21.005Z,61.87
2018-08-12T00:42:49.032Z,61.31
2018-08-12T00:45:19.338Z,61.46
2018-08-12T00:47:47.782Z,61.28
2018-08-12T00:50:16.520Z,61.12
2018-08-12T00:52:44.623Z,61.40
2018-08-12T00:55:14.745Z,61.77
2018-08-12T00:57:43.671Z,61.41
2018-08-12T01:00:15.545Z,61.91
2018-08-12T01:02:43.577Z,61.99
2018-08-12T01:05:13.553Z,61.61
2018-08-12T01:07:41.944Z,62.18
2018-08-12T01:10:10.793Z,62.22
2018-08-12T01:12:39.065Z,62.54
2018-08-12T01:15:10.551Z,61.94
2018-08-12T01:17:38.688Z,61.91
2018-08-12T01:20:08.077Z,61.94
2018-08-12T01:22:36.108Z,62.60
2018-08-12T01:25:05.948Z,62.12
2018-08-12T01:27:34.127Z,62.45
2018-08-12T01:30:02.164Z,62.23
2018-08-12T01:32:30.193Z,62.63
2018-08-12T01:34:58.228Z,62.20
2018-08-12T01:37:26.253Z,62.47
2018-08-12T01:39:54.285Z,62.51
2018-08-12T01:42:22.316Z,62.41
2018-08-12T01:44:50.377Z,62.36
2018-08-12T01:47:18.421Z,62.29
2018-08-12T01:49:46.774Z,62.94
2018-08-12T01:52:14.802Z,63.16
2018-08-12T01:54:42.834Z,62.96
2018-08-12T01:57:10.875Z,62.28
2018-08-12T01:59:38.905Z,63.19
2018-08-12T02:02:06.954Z,63.13
2018-08-12T02:04:34.994Z,62.82
2018-08-12T02:07:03.181Z,63.29
2018-08-12T02:09:37.773Z,62.96
2018-08-12T02:12:05.798Z,62.53
2018-08-12T02:14:33.836Z,63.14
2018-08-12T02:17:01.881Z,62.69
2018-08-12T02:19:29.930Z,63.32
2018-08-12T02:21:58.104Z,62.91
2018-08-12T02:24:26.128Z,63.38
2018-08-12T02:26:54.164Z,62.98
2018-08-12T02:29:22.196Z,63.18
2018-08-12T02:31:50.246Z,62.70
2018-08-12T02:34:18.289Z,63.66
2018-08-12T02:36:46.325Z,63.98
2018-08-12T02:39:14.374Z,63.68
2018-08-12T02:41:42.442Z,63.71
2018-08-12T02:44:17.124Z,64.17
2018-08-12T02:46:45.368Z,64.07
2018-08-12T02:49:13.440Z,64.55
2018-08-12T02:51:41.476Z,64.47
2018-08-12T02:54:09.516Z,64.69
2018-08-12T02:56:37.568Z,64.23
2018-08-12T02:59:05.650Z,64.81
2018-08-12T03:01:39.948Z,64.47
2018-08-12T03:04:07.989Z,64.43
2018-08-12T03:06:36.009Z,64.61
2018-08-12T03:09:08.197Z,64.88
2018-08-12T03:11:36.241Z,64.43
2018-08-12T03:14:05.432Z,64.62
2018-08-12T03:16:33.475Z,64.73
2018-08-12T03:19:01.507Z,64.62
2018-08-12T03:21:29.529Z,64.46
2018-08-12T03:23:57.630Z,64.58
2018-08-12T03:26:25.825Z,64.57
2018-08-12T03:28:53.870Z,64.04
2018-08-12T03:31:21.902Z,64.40
2018-08-12T03:33:49.956Z,64.46
2018-08-12T03:36:17.994Z,64.32
2018-08-12T03:38:46.046Z,64.10
2018-08-12T03:41:14.084Z,64.06
2018-08-12T03:43:42.136Z,63.76
2018-08-12T03:46:10.354Z,64.25
2018-08-12T03:48:38.413Z,63.27
2018-08-12T03:51:06.461Z,64.00
2018-08-12T03:53:34.829Z,64.03
2018-08-12T03:56:02.855Z,64.00
2018-08-12T03:58:30.892Z,64.31
2018-08-12T04:00:59.093Z,64.37
2018-08-12T04:03:27.098Z,63.90
2018-08-12T04:05:55.144Z,63.99
2018-08-12T04:08:23.185Z,64.30
2018-08-12T04:10:51.209Z,63.70
2018-08-12T04:13:19.229Z,63.98
2018-08-12T04:15:47.249Z,64.13
2018-08-12T04:18:15.273Z,64.44
2018-08-12T04:20:43.313Z,64.40
2018-08-12T04:23:11.371Z,64.98
2018-08-12T04:25:39.391Z,64.37
2018-08-12T04:28:07.416Z,65.18
2018-08-12T04:30:35.450Z,64.97
2018-08-12T04:33:03.831Z,64.65
2018-08-12T04:35:31.861Z,64.90
2018-08-12T04:37:59.868Z,64.23
2018-08-12T04:40:28.072Z,64.31
2018-08-12T04:42:56.104Z,64.25
2018-08-12T04:45:24.132Z,63.84
2018-08-12T04:47:52.148Z,63.98
2018-08-12T04:50:20.184Z,63.85
2018-08-12T04:52:48.217Z,63.62
2018-08-12T04:55:16.232Z,63.38
2018-08-12T04:57:44.252Z,63.08
2018-08-12T05:00:12.284Z,62.41
2018-08-12T05:02:40.316Z,62.36
2018-08-12T05:05:08.797Z,62.59
2018-08-12T05:07:36.820Z,61.64
2018-08-12T05:10:05.781Z,61.50
2018-08-12T05:12:34.092Z,61.93
2018-08-12T05:15:02.132Z,62.11
2018-08-12T05:17:30.204Z,60.95
2018-08-12T05:19:58.233Z,61.04
2018-08-12T05:22:26.248Z,61.03
2018-08-12T05:24:54.261Z,60.65
2018-08-12T05:27:22.292Z,60.65
2018-08-12T05:29:50.316Z,60.38
2018-08-12T05:32:18.336Z,60.38
2018-08-12T05:34:46.508Z,60.53
2018-08-12T05:37:14.527Z,59.82
2018-08-12T05:39:42.568Z,59.36
2018-08-12T05:42:10.732Z,60.27
2018-08-12T05:44:38.772Z,59.72
2018-08-12T05:47:06.789Z,60.29
2018-08-12T05:49:35.098Z,59.87
2018-08-12T05:52:03.125Z,60.00
2018-08-12T05:54:31.161Z,59.78
2018-08-12T05:56:59.214Z,59.55
2018-08-12T05:59:27.252Z,58.91
2018-08-12T06:01:55.309Z,59.06
2018-08-12T06:04:23.352Z,59.80
2018-08-12T06:06:51.548Z,59.49
2018-08-12T06:09:19.573Z,59.25
2018-08-12T06:11:47.600Z,59.61
2018-08-12T06:14:15.809Z,58.69
2018-08-12T06:16:43.849Z,58.99
2018-08-12T06:19:11.874Z,58.29
2018-08-12T06:21:39.918Z,58.18
2018-08-12T06:24:07.967Z,57.99
2018-08-12T06:26:36.250Z,58.09
2018-08-12T06:29:05.005Z,58.37
2018-08-12T06:31:33.084Z,57.67
2018-08-12T06:34:01.102Z,57.55
2018-08-12T06:36:29.141Z,56.54
2018-08-12T06:38:57.277Z,56.11
2018-08-12T06:41:25.597Z,56.32
2018-08-12T06:43:53.634Z,56.51
2018-08-12T06:46:21.713Z,55.59
2018-08-12T06:48:49.720Z,55.61
2018-08-12T06:51:17.777Z,55.68
2018-08-12T06:53:45.808Z,55.00
2018-08-12T06:56:13.845Z,55.15
2018-08-12T06:58:41.885Z,54.76
2018-08-12T07:01:09.929Z,55.07
2018-08-12T07:03:38.232Z,54.19
2018-08-12T07:06:06.267Z,54.42
2018-08-12T07:08:34.552Z,54.72
2018-08-12T07:11:02.593Z,54.77
2018-08-12T07:13:30.844Z,54.73
2018-08-12T07:15:58.881Z,54.73
2018-08-12T07:18:27.025Z,54.42
2018-08-12T07:20:55.070Z,53.72
2018-08-12T07:23:23.105Z,54.08
2018-08-12T07:25:51.134Z,53.51
2018-08-12T07:28:19.273Z,52.99
2018-08-12T07:30:47.309Z,53.04
2018-08-12T07:33:15.496Z,53.35
2018-08-12T07:35:43.536Z,52.54
2018-08-12T07:38:11.577Z,53.10
2018-08-12T07:40:39.645Z,52.18
2018-08-12T07:43:07.693Z,51.95
2018-08-12T07:45:35.721Z,52.25
2018-08-12T07:48:03.821Z,51.28
2018-08-12T07:50:31.868Z,50.54
2018-08-12T07:52:59.921Z,50.08
2018-08-12T07:55:27.996Z,48.80
2018-08-12T07:57:56.408Z,48.00
2018-08-12T08:00:24.445Z,47.69
2018-08-12T08:02:52.481Z,47.95
2018-08-12T08:05:20.530Z,48.08
2018-08-12T08:07:48.564Z,46.98
2018-08-12T08:10:17.574Z,46.74
2018-08-12T08:12:45.849Z,45.88
2018-08-12T08:15:20.380Z,45.02
2018-08-12T08:17:48.645Z,44.58
2018-08-12T08:20:16.927Z,45.08
2018-08-12T08:22:45.449Z,44.54
2018-08-12T08:25:13.699Z,44.05
2018-08-12T08:27:41.771Z,43.34
2018-08-12T08:30:12.465Z,43.58
2018-08-12T08:32:40.852Z,43.93
2018-08-12T08:35:09.344Z,43.13
2018-08-12T08:37:37.555Z,42.58
2018-08-12T08:40:10.384Z,42.73
2018-08-12T08:42:38.442Z,42.29
2018-08-12T08:45:12.672Z,42.45
2018-08-12T08:47:40.715Z,42.10
2018-08-12T08:50:08.928Z,41.01
2018-08-12T08:52:37.512Z,41.35
2018-08-12T08:55:06.499Z,41.44
2018-08-12T08:57:34.556Z,39.64
2018-08-12T09:00:02.644Z,40.47
2018-08-12T09:02:31.032Z,39.91
2018-08-12T09:04:59.052Z,40.80
2018-08-12T09:07:27.100Z,38.26
2018-08-12T09:09:55.361Z,38.77
2018-08-12T09:12:23.411Z,38.81
2018-08-12T09:14:51.456Z,39.38
2018-08-12T09:17:19.602Z,40.19
2018-08-12T09:19:47.671Z,38.22
2018-08-12T09:22:15.693Z,38.92
2018-08-12T09:24:43.725Z,38.14
2018-08-12T09:27:11.776Z,38.70
2018-08-12T09:29:39.941Z,38.25
2018-08-12T09:32:08.034Z,37.92
2018-08-12T09:34:36.077Z,37.83
2018-08-12T09:37:05.110Z,37.41
2018-08-12T09:39:33.149Z,38.13
2018-08-12T09:42:01.173Z,36.96
2018-08-12T09:44:29.207Z,37.05
2018-08-12T09:46:57.243Z,37.83
2018-08-12T09:49:25.268Z,37.55
2018-08-12T09:51:53.583Z,37.98
2018-08-12T09:54:21.516Z,37.38
2018-08-12T09:56:49.552Z,37.35
2018-08-12T09:59:17.602Z,37.84
2018-08-12T10:01:45.875Z,37.27
2018-08-12T10:04:13.901Z,37.34
2018-08-12T10:06:42.098Z,37.22
2018-08-12T10:09:11.388Z,36.40
2018-08-12T10:11:39.660Z,35.39
2018-08-12T10:14:08.328Z,35.54
2018-08-12T10:16:36.510Z,35.62
2018-08-12T10:19:05.079Z,34.67
2018-08-12T10:21:33.164Z,34.66
2018-08-12T10:24:01.183Z,34.58
2018-08-12T10:26:29.269Z,34.10
2018-08-12T10:28:57.692Z,34.97
2018-08-12T10:31:25.716Z,34.09
2018-08-12T10:33:53.770Z,34.76
2018-08-12T10:36:21.813Z,33.84
2018-08-12T10:38:50.188Z,33.83
2018-08-12T10:41:18.211Z,34.26
2018-08-12T10:43:46.361Z,34.41
2018-08-12T10:46:14.721Z,34.38
2018-08-12T10:48:42.812Z,33.88
2018-08-12T10:51:10.834Z,33.45
2018-08-12T10:53:38.865Z,34.45
2018-08-12T10:56:07.009Z,34.29
2018-08-12T10:58:35.041Z,35.86
2018-08-12T11:01:03.125Z,34.82
2018-08-12T11:03:31.236Z,34.93
2018-08-12T11:05:59.269Z,34.47
2018-08-12T11:08:27.392Z,34.71
2018-08-12T11:10:55.448Z,35.25
2018-08-12T11:13:23.644Z,33.39
2018-08-12T11:15:51.664Z,33.27
2018-08-12T11:18:19.707Z,33.42
2018-08-12T11:20:47.894Z,32.89
2018-08-12T11:23:15.928Z,33.25
2018-08-12T11:25:43.978Z,34.76
2018-08-12T11:28:12.021Z,34.22
2018-08-12T11:30:40.327Z,33.44
2018-08-12T11:33:08.498Z,32.76
2018-08-12T11:35:36.759Z,32.57
2018-08-12T11:38:04.991Z,34.10
2018-08-12T11:40:33.009Z,33.19
2018-08-12T11:43:01.051Z,33.68
2018-08-12T11:45:29.367Z,33.72
2018-08-12T11:47:57.406Z,32.97
2018-08-12T11:50:25.437Z,33.30
2018-08-12T11:52:53.488Z,32.10
2018-08-12T11:55:21.526Z,32.29
2018-08-12T11:57:49.592Z,33.00
2018-08-12T12:00:19.504Z,32.69
2018-08-12T12:02:48.845Z,32.55
2018-08-12T12:05:16.868Z,32.64
2018-08-12T12:07:45.248Z,33.67
2018-08-12T12:10:15.789Z,32.47
2018-08-12T12:12:45.180Z,31.92
2018-08-12T12:15:14.048Z,31.94
2018-08-12T12:17:42.356Z,31.37
2018-08-12T12:20:11.467Z,32.54
2018-08-12T12:22:40.622Z,32.05
2018-08-12T12:25:10.822Z,32.88
2018-08-12T12:27:38.921Z,33.15
2018-08-12T12:30:08.849Z,32.69
2018-08-12T12:32:36.932Z,30.83
2018-08-12T12:35:05.704Z,30.93
2018-08-12T12:37:33.755Z,32.04
2018-08-12T12:40:01.846Z,31.38
2018-08-12T12:42:29.881Z,30.26
2018-08-12T12:44:58.193Z,30.99
2018-08-12T12:47:26.222Z,32.33
2018-08-12T12:49:54.450Z,31.06
2018-08-12T12:52:22.500Z,31.39
2018-08-12T12:54:50.555Z,31.41
2018-08-12T12:57:18.580Z,30.84
2018-08-12T12:59:46.613Z,31.17
2018-08-12T13:02:14.652Z,30.33
2018-08-12T13:04:42.690Z,31.49
2018-08-12T13:07:10.761Z,30.59
2018-08-12T13:09:38.837Z,31.58
2018-08-12T13:12:07.023Z,30.91
2018-08-12T13:14:35.056Z,31.17
2018-08-12T13:17:03.116Z,31.16
2018-08-12T13:19:31.179Z,31.26
2018-08-12T13:21:59.212Z,30.76
2018-08-12T13:24:27.253Z,31.73
2018-08-12T13:26:55.297Z,29.46
2018-08-12T13:29:23.380Z,30.79
2018-08-12T13:31:51.404Z,31.41
2018-08-12T13:34:19.547Z,30.57
2018-08-12T13:36:47.588Z,32.26
2018-08-12T13:39:15.640Z,30.37
2018-08-12T13:41:43.705Z,30.37
2018-08-12T13:44:11.720Z,30.75
2018-08-12T13:46:39.776Z,29.74
2018-08-12T13:49:07.845Z,29.73
2018-08-12T13:51:35.916Z,31.07
2018-08-12T13:54:05.149Z,30.69
2018-08-12T13:56:33.185Z,30.59
2018-08-12T13:59:01.472Z,31.54
2018-08-12T14:01:29.539Z,30.88
2018-08-12T14:03:57.573Z,31.45
2018-08-12T14:06:25.600Z,29.87
2018-08-12T14:08:53.650Z,31.90
2018-08-12T14:11:21.676Z,30.29
2018-08-12T14:13:49.919Z,31.10
2018-08-12T14:16:17.981Z,30.85
2018-08-12T14:18:46.018Z,30.74
2018-08-12T14:21:14.107Z,32.62
2018-08-12T14:23:42.094Z,32.14
2018-08-12T14:26:10.127Z,32.09
2018-08-12T14:28:38.162Z,32.46
2018-08-12T14:31:06.304Z,32.52
2018-08-12T14:33:34.508Z,31.37
2018-08-12T14:36:02.550Z,32.66
2018-08-12T14:38:30.576Z,32.25
2018-08-12T14:40:58.611Z,32.95
2018-08-12T14:43:26.779Z,31.81
2018-08-12T14:45:54.820Z,31.19
2018-08-12T14:48:22.864Z,31.61
2018-08-12T14:50:50.917Z,32.91
2018-08-12T14:53:18.933Z,33.22
2018-08-12T14:55:46.972Z,32.88
2018-08-12T14:58:15.006Z,33.05
2018-08-12T15:00:43.034Z,32.64
2018-08-12T15:03:11.207Z,32.58
2018-08-12T15:05:39.300Z,32.63
2018-08-12T15:08:07.355Z,31.95
2018-08-12T15:10:35.409Z,33.02
2018-08-12T15:13:03.440Z,31.36
2018-08-12T15:15:31.606Z,32.50
2018-08-12T15:17:59.650Z,32.23
2018-08-12T15:20:27.693Z,32.56
2018-08-12T15:22:55.948Z,32.32
2018-08-12T15:25:23.934Z,32.30
2018-08-12T15:27:52.050Z,31.81
2018-08-12T15:30:20.186Z,31.83
2018-08-12T15:32:48.225Z,31.66
2018-08-12T15:35:16.278Z,32.22
2018-08-12T15:37:44.458Z,31.82
2018-08-12T15:40:13.618Z,31.99
2018-08-12T15:42:42.135Z,32.47
2018-08-12T15:45:12.551Z,32.97
2018-08-12T15:47:41.102Z,31.41
2018-08-12T15:50:09.972Z,32.31
2018-08-12T15:52:38.053Z,32.76
2018-08-12T15:55:06.499Z,32.16
2018-08-12T15:57:34.705Z,32.40
2018-08-12T16:00:03.101Z,32.27
2018-08-12T16:02:31.228Z,32.63
2018-08-12T16:04:59.305Z,31.23
2018-08-12T16:07:27.340Z,32.49
2018-08-12T16:09:55.365Z,31.76
2018-08-12T16:12:23.403Z,32.14
2018-08-12T16:14:51.440Z,33.08
2018-08-12T16:17:19.614Z,32.93
2018-08-12T16:19:47.649Z,32.44
2018-08-12T16:24:51.078Z,32.05
2018-08-12T16:27:19.100Z,32.78
2018-08-12T16:29:47.254Z,33.45
2018-08-12T16:32:15.241Z,33.33
2018-08-12T16:34:43.325Z,32.57
2018-08-12T16:37:11.508Z,33.33
2018-08-12T16:39:39.544Z,33.03
2018-08-12T16:42:07.832Z,31.83
2018-08-12T16:44:35.862Z,32.51
2018-08-12T16:47:05.372Z,33.11
2018-08-12T16:49:33.403Z,32.96
2018-08-12T16:52:01.440Z,31.71
2018-08-12T16:54:29.505Z,32.84
2018-08-12T16:56:57.657Z,32.60
2018-08-12T16:59:25.691Z,32.43
2018-08-12T17:01:53.727Z,32.92
2018-08-12T17:04:21.881Z,32.76
2018-08-12T17:06:49.977Z,33.25
2018-08-12T17:09:17.963Z,33.57
2018-08-12T17:11:45.996Z,33.23
2018-08-12T17:14:14.029Z,33.32
2018-08-12T17:16:42.066Z,34.00
2018-08-12T17:19:10.283Z,33.54
2018-08-12T17:21:38.321Z,32.92
2018-08-12T17:24:06.340Z,33.69
2018-08-12T17:26:34.373Z,33.65
2018-08-12T17:29:02.401Z,33.57
2018-08-12T17:31:30.493Z,33.94
2018-08-12T17:33:58.542Z,33.89
2018-08-12T17:36:26.584Z,34.63
2018-08-12T17:38:54.640Z,34.47
2018-08-12T17:41:22.907Z,33.70
2018-08-12T17:43:50.932Z,33.57
2018-08-12T17:46:18.949Z,34.41
2018-08-12T17:48:47.138Z,33.32
2018-08-12T17:51:15.176Z,34.20
2018-08-12T17:53:43.199Z,34.25
2018-08-12T17:56:11.544Z,35.15
2018-08-12T17:58:39.580Z,35.71
2018-08-12T18:01:07.818Z,35.69
2018-08-12T18:03:35.841Z,36.68
2018-08-12T18:06:04.712Z,36.00
2018-08-12T18:08:32.732Z,36.41
2018-08-12T18:11:00.882Z,36.74
2018-08-12T18:13:28.901Z,37.54
2018-08-12T18:15:56.925Z,38.27
2018-08-12T18:18:24.955Z,38.77
2018-08-12T18:20:52.978Z,38.08
2018-08-12T18:23:21.078Z,37.92
2018-08-12T18:25:49.109Z,38.59
2018-08-12T18:28:17.246Z,38.64
2018-08-12T18:30:45.275Z,38.75
2018-08-12T18:33:13.310Z,38.68
2018-08-12T18:35:41.424Z,39.30
2018-08-12T18:38:09.786Z,39.08
2018-08-12T18:40:37.829Z,39.36
2018-08-12T18:43:05.884Z,39.47
2018-08-12T18:45:33.877Z,39.78
2018-08-12T18:48:02.090Z,40.39
2018-08-12T18:50:30.142Z,39.59
2018-08-12T18:52:58.175Z,39.94
2018-08-12T18:55:26.197Z,41.14
2018-08-12T18:57:54.227Z,40.60
2018-08-12T19:00:22.262Z,40.91
2018-08-12T19:02:50.513Z,41.08
2018-08-12T19:05:18.540Z,42.30
2018-08-12T19:07:46.587Z,41.42
2018-08-12T19:10:14.623Z,41.94
2018-08-12T19:12:43.144Z,42.35
2018-08-12T19:15:12.042Z,43.46
2018-08-12T19:17:40.448Z,43.78
2018-08-12T19:20:09.433Z,43.90
2018-08-12T19:22:38.361Z,43.19
2018-08-12T19:25:06.739Z,43.63
2018-08-12T19:27:35.073Z,44.75
2018-08-12T19:30:03.581Z,44.81
2018-08-12T19:32:31.615Z,45.11
2018-08-12T19:34:59.636Z,44.22
2018-08-12T19:37:27.681Z,45.22
2018-08-12T19:39:55.713Z,45.46
2018-08-12T19:42:23.759Z,45.61
2018-08-12T19:44:52.323Z,45.86
2018-08-12T19:47:20.419Z,46.88
2018-08-12T19:49:48.436Z,47.06
2018-08-12T19:52:16.470Z,47.31
2018-08-12T19:54:44.645Z,47.84
2018-08-12T19:57:13.270Z,47.48
2018-08-12T19:59:41.369Z,47.66
2018-08-12T20:02:09.453Z,47.74
2018-08-12T20:04:37.512Z,48.68
2018-08-12T20:07:05.901Z,47.88
2018-08-12T20:09:33.972Z,48.64
2018-08-12T20:12:02.251Z,49.11
2018-08-12T20:14:30.700Z,49.09
2018-08-12T20:16:58.792Z,49.42
2018-08-12T20:19:27.033Z,49.20
2018-08-12T20:21:55.257Z,49.34
2018-08-12T20:24:23.322Z,49.65
2018-08-12T20:26:51.508Z,48.99
2018-08-12T20:29:19.645Z,49.17
2018-08-12T20:31:47.676Z,49.19
2018-08-12T20:34:15.697Z,49.30
2018-08-12T20:36:44.013Z,49.49
2018-08-12T20:39:13.066Z,49.60
2018-08-12T20:41:41.781Z,50.06
2018-08-12T20:44:09.893Z,50.45
2018-08-12T20:46:37.945Z,50.49
2018-08-12T20:49:06.177Z,50.95
2018-08-12T20:51:34.201Z,50.88
2018-08-12T20:54:02.234Z,50.52
2018-08-12T20:56:30.270Z,51.23
2018-08-12T20:58:58.294Z,51.00
2018-08-12T21:02:01.671Z,51.07
2018-08-12T21:04:29.685Z,51.36
2018-08-12T21:06:57.724Z,51.43
2018-08-12T21:09:25.920Z,51.93
2018-08-12T21:11:54.030Z,52.40
2018-08-12T21:14:22.018Z,52.58
2018-08-12T21:16:50.060Z,52.88
2018-08-12T21:19:18.140Z,51.92
2018-08-12T21:21:46.183Z,52.12
2018-08-12T21:24:14.204Z,52.74
2018-08-12T21:26:42.233Z,52.37
2018-08-12T21:29:10.418Z,52.80
2018-08-12T21:31:38.469Z,53.43
2018-08-12T21:34:06.501Z,53.68
2018-08-12T21:36:34.546Z,53.58
2018-08-12T21:39:02.555Z,52.68
2018-08-12T21:41:30.576Z,52.95
2018-08-12T21:43:58.610Z,53.09
2018-08-12T21:46:26.657Z,52.95
2018-08-12T21:48:54.720Z,53.44
2018-08-12T21:51:22.753Z,53.32
2018-08-12T21:53:50.790Z,54.14
2018-08-12T21:56:18.840Z,53.94
2018-08-12T21:58:46.871Z,54.70
2018-08-12T22:01:14.912Z,54.85
2018-08-12T22:03:42.933Z,55.26
2018-08-12T22:06:10.981Z,54.47
2018-08-12T22:08:39.003Z,55.32
2018-08-12T22:11:07.056Z,55.48
2018-08-12T22:13:35.101Z,55.00
2018-08-12T22:16:03.127Z,55.69
2018-08-12T22:18:31.464Z,54.96
2018-08-12T22:20:59.504Z,55.95
2018-08-12T22:23:27.536Z,55.47
2018-08-12T22:25:55.554Z,56.12
2018-08-12T22:28:27.044Z,56.02
2018-08-12T22:30:55.077Z,56.35
2018-08-12T22:33:23.100Z,55.79
2018-08-12T22:35:51.148Z,56.25
2018-08-12T22:38:19.361Z,55.47
2018-08-12T22:40:47.397Z,55.96
2018-08-12T22:43:15.430Z,55.83
2018-08-12T22:45:43.474Z,55.81
2018-08-12T22:48:11.488Z,55.33
2018-08-12T22:50:39.513Z,56.56
2018-08-12T22:53:07.566Z,55.82
2018-08-12T22:55:35.592Z,55.81
2018-08-12T22:58:04.632Z,55.47
2018-08-12T23:00:32.783Z,56.27
2018-08-12T23:03:01.001Z,57.05
2018-08-12T23:05:29.016Z,56.27
2018-08-12T23:08:01.247Z,56.84
2018-08-12T23:10:29.464Z,57.71
2018-08-12T23:12:57.506Z,56.87
2018-08-12T23:15:36.813Z,57.87
2018-08-12T23:18:04.940Z,57.81
2018-08-12T23:20:32.984Z,57.87
2018-08-12T23:23:01.021Z,58.42
2018-08-12T23:25:35.588Z,58.41
2018-08-12T23:28:03.772Z,58.19
2018-08-12T23:30:31.791Z,58.32
2018-08-12T23:32:59.824Z,57.85
2018-08-12T23:35:27.853Z,57.50
2018-08-12T23:37:55.884Z,58.55
2018-08-12T23:40:23.908Z,58.38
2018-08-12T23:42:52.092Z,57.51
2018-08-12T23:45:20.109Z,57.76
2018-08-12T23:47:48.128Z,58.71
2018-08-12T23:50:16.175Z,57.50
2018-08-12T23:52:44.194Z,57.72
2018-08-12T23:55:12.233Z,58.30
2018-08-12T23:57:40.305Z,58.46
